Wetterdaten: aktuell Freitag, 16.11.2018 10:40
Datum Zeit Temp. A. Feuchte A. Luftdruck Regen Wind Richtung Richtung Taupunkt Windchill Windben
16.11.2018 10:40 1,6 C 99 % 1029,7 hPa 0,0 l/m 14,7 km/h (3 Bft) O 97 1,5 C -4,9 C 19,3 km/h (3 Bft)
16.11.2018 10:35 1,5 C 98 % 1029,7 hPa 0,0 l/m 15,2 km/h (3 Bft) O 91 1,2 C -5,3 C 22,5 km/h (4 Bft)
16.11.2018 10:30 1,4 C 98 % 1029,6 hPa 0,0 l/m 14,5 km/h (3 Bft) O 101 1,1 C -5,0 C 20,9 km/h (4 Bft)
16.11.2018 10:25 1,3 C 99 % 1029,6 hPa 0,0 l/m 16,5 km/h (3 Bft) O-NO 73 1,2 C -6,2 C 22,5 km/h (4 Bft)
16.11.2018 10:20 1,2 C 99 % 1029,6 hPa 0,0 l/m 14,5 km/h (3 Bft) O 87 1,1 C -5,2 C 22,5 km/h (4 Bft)
16.11.2018 10:15 1,2 C 98 % 1029,6 hPa 0,0 l/m 14,3 km/h (3 Bft) O 80 0,9 C -5,1 C 20,9 km/h (4 Bft)
16.11.2018 10:10 1,1 C 98 % 1029,6 hPa 0,0 l/m 18,7 km/h (3 Bft) O 82 0,8 C -7,6 C 24,1 km/h (4 Bft)
16.11.2018 10:05 1,0 C 98 % 1029,5 hPa 0,0 l/m 16,9 km/h (3 Bft) O 84 0,7 C -6,8 C 25,7 km/h (4 Bft)
16.11.2018 10:00 0,9 C 98 % 1029,5 hPa 0,0 l/m 18,7 km/h (3 Bft) O-NO 63 0,6 C -7,9 C 22,5 km/h (4 Bft)
16.11.2018 09:55 0,8 C 98 % 1029,5 hPa 0,0 l/m 19,7 km/h (3 Bft) O 89 0,5 C -8,5 C 27,4 km/h (5 Bft)
16.11.2018 09:50 0,8 C 98 % 1029,5 hPa 0,0 l/m 20,4 km/h (4 Bft) O 82 0,5 C -8,8 C 29,0 km/h (5 Bft)
16.11.2018 09:45 0,8 C 98 % 1029,5 hPa 0,0 l/m 19,1 km/h (3 Bft) O-NO 59 0,5 C -8,2 C 30,6 km/h (5 Bft)
16.11.2018 09:40 0,8 C 98 % 1029,5 hPa 0,0 l/m 20,8 km/h (4 Bft) O-NO 59 0,5 C -9,0 C 30,6 km/h (5 Bft)
16.11.2018 09:35 0,8 C 98 % 1029,5 hPa 0,0 l/m 20,0 km/h (4 Bft) O-NO 67 0,5 C -8,6 C 30,6 km/h (5 Bft)
16.11.2018 09:30 0,9 C 98 % 1029,5 hPa 0,0 l/m 20,2 km/h (4 Bft) O 81 0,6 C -8,6 C 27,4 km/h (5 Bft)
16.11.2018 09:25 0,9 C 98 % 1029,4 hPa 0,0 l/m 18,7 km/h (3 Bft) O-NO 71 0,6 C -7,9 C 24,1 km/h (4 Bft)
16.11.2018 09:20 0,8 C 98 % 1029,4 hPa 0,0 l/m 18,9 km/h (3 Bft) O-NO 76 0,5 C -8,1 C 25,7 km/h (4 Bft)
16.11.2018 09:15 0,8 C 98 % 1029,3 hPa 0,0 l/m 21,3 km/h (4 Bft) O 93 0,5 C -9,2 C 25,7 km/h (4 Bft)
16.11.2018 09:10 0,8 C 98 % 1029,3 hPa 0,0 l/m 17,2 km/h (3 Bft) O 81 0,5 C -7,2 C 24,1 km/h (4 Bft)
16.11.2018 09:05 0,8 C 98 % 1029,3 hPa 0,0 l/m 19,5 km/h (3 Bft) O 94 0,5 C -8,4 C 24,1 km/h (4 Bft)
16.11.2018 09:00 0,8 C 98 % 1029,2 hPa 0,0 l/m 19,3 km/h (3 Bft) O-NO 78 0,5 C -8,3 C 25,7 km/h (4 Bft)
16.11.2018 08:55 0,8 C 98 % 1029,2 hPa 0,0 l/m 20,5 km/h (4 Bft) O 94 0,5 C -8,8 C 27,4 km/h (5 Bft)
16.11.2018 08:50 0,8 C 98 % 1029,1 hPa 0,0 l/m 22,8 km/h (4 Bft) O 85 0,5 C -9,8 C 29,0 km/h (5 Bft)
16.11.2018 08:45 0,8 C 98 % 1029,1 hPa 0,0 l/m 21,2 km/h (4 Bft) O 81 0,5 C -9,1 C 27,4 km/h (5 Bft)
16.11.2018 08:40 0,8 C 98 % 1029,0 hPa 0,0 l/m 23,1 km/h (4 Bft) O 86 0,5 C -9,9 C 30,6 km/h (5 Bft)
16.11.2018 08:35 0,9 C 98 % 1029,0 hPa 0,0 l/m 22,9 km/h (4 Bft) O 88 0,6 C -9,7 C 32,2 km/h (5 Bft)
16.11.2018 08:30 0,9 C 98 % 1029,0 hPa 0,0 l/m 19,9 km/h (4 Bft) O-NO 78 0,6 C -8,4 C 27,4 km/h (5 Bft)
16.11.2018 08:25 0,9 C 98 % 1029,0 hPa 0,0 l/m 19,3 km/h (3 Bft) O 82 0,6 C -8,1 C 25,7 km/h (4 Bft)
16.11.2018 08:20 0,9 C 98 % 1028,9 hPa 0,0 l/m 19,6 km/h (3 Bft) O 86 0,6 C -8,3 C 27,4 km/h (5 Bft)
16.11.2018 08:15 0,9 C 98 % 1028,9 hPa 0,0 l/m 22,3 km/h (4 Bft) O 91 0,6 C -9,5 C 27,4 km/h (5 Bft)
16.11.2018 08:10 1,1 C 98 % 1028,9 hPa 0,0 l/m 21,5 km/h (4 Bft) O 92 0,8 C -8,9 C 29,0 km/h (5 Bft)
16.11.2018 08:05 1,2 C 98 % 1028,9 hPa 0,0 l/m 19,2 km/h (3 Bft) O 90 0,9 C -7,7 C 25,7 km/h (4 Bft)
16.11.2018 08:00 1,2 C 99 % 1028,9 hPa 0,0 l/m 18,8 km/h (3 Bft) O-NO 74 1,1 C -7,5 C 24,1 km/h (4 Bft)
16.11.2018 07:55 1,3 C 99 % 1028,8 hPa 0,0 l/m 19,7 km/h (3 Bft) O-NO 77 1,2 C -7,8 C 25,7 km/h (4 Bft)
16.11.2018 07:50 1,4 C 98 % 1028,7 hPa 0,0 l/m 18,6 km/h (3 Bft) O-NO 58 1,1 C -7,2 C 25,7 km/h (4 Bft)
16.11.2018 07:45 1,4 C 98 % 1028,8 hPa 0,0 l/m 16,0 km/h (3 Bft) O 90 1,1 C -5,8 C 22,5 km/h (4 Bft)
16.11.2018 07:40 1,4 C 98 % 1028,6 hPa 0,0 l/m 20,4 km/h (4 Bft) O 82 1,1 C -8,0 C 27,4 km/h (5 Bft)
16.11.2018 07:35 1,5 C 98 % 1028,5 hPa 0,0 l/m 17,1 km/h (3 Bft) O 87 1,2 C -6,3 C 22,5 km/h (4 Bft)
16.11.2018 07:30 1,5 C 98 % 1028,4 hPa 0,0 l/m 17,2 km/h (3 Bft) O-NO 76 1,2 C -6,4 C 24,1 km/h (4 Bft)
16.11.2018 07:25 1,6 C 99 % 1028,4 hPa 0,0 l/m 19,6 km/h (3 Bft) O 81 1,5 C -7,4 C 27,4 km/h (5 Bft)
16.11.2018 07:20 1,7 C 99 % 1028,3 hPa 0,0 l/m 18,2 km/h (3 Bft) O 96 1,6 C -6,6 C 22,5 km/h (4 Bft)
16.11.2018 07:15 1,7 C 99 % 1028,2 hPa 0,0 l/m 17,2 km/h (3 Bft) O 93 1,6 C -6,1 C 24,1 km/h (4 Bft)
16.11.2018 07:10 1,7 C 98 % 1028,1 hPa 0,0 l/m 16,7 km/h (3 Bft) O 89 1,4 C -5,9 C 24,1 km/h (4 Bft)
16.11.2018 07:05 1,8 C 98 % 1028,0 hPa 0,0 l/m 17,4 km/h (3 Bft) O 90 1,5 C -6,1 C 24,1 km/h (4 Bft)
16.11.2018 07:00 1,8 C 98 % 1028,0 hPa 0,0 l/m 17,5 km/h (3 Bft) O 90 1,5 C -6,1 C 24,1 km/h (4 Bft)
16.11.2018 06:55 1,8 C 98 % 1028,0 hPa 0,0 l/m 15,8 km/h (3 Bft) O 81 1,5 C -5,2 C 20,9 km/h (4 Bft)
16.11.2018 06:50 1,8 C 98 % 1028,0 hPa 0,0 l/m 16,8 km/h (3 Bft) O 90 1,5 C -5,8 C 24,1 km/h (4 Bft)
16.11.2018 06:45 1,8 C 98 % 1028,0 hPa 0,0 l/m 19,2 km/h (3 Bft) O 88 1,5 C -6,9 C 25,7 km/h (4 Bft)
16.11.2018 06:40 1,9 C 99 % 1027,9 hPa 0,0 l/m 18,7 km/h (3 Bft) O 84 1,8 C -6,6 C 24,1 km/h (4 Bft)
16.11.2018 06:35 1,9 C 99 % 1028,0 hPa 0,0 l/m 18,2 km/h (3 Bft) O 84 1,8 C -6,4 C 25,7 km/h (4 Bft)
16.11.2018 06:30 1,9 C 99 % 1028,0 hPa 0,0 l/m 17,8 km/h (3 Bft) O 90 1,8 C -6,2 C 24,1 km/h (4 Bft)
16.11.2018 06:25 1,9 C 99 % 1027,9 hPa 0,0 l/m 19,3 km/h (3 Bft) O 80 1,8 C -6,9 C 29,0 km/h (5 Bft)
16.11.2018 06:20 1,9 C 99 % 1027,9 hPa 0,0 l/m 17,5 km/h (3 Bft) O 90 1,8 C -6,0 C 24,1 km/h (4 Bft)
16.11.2018 06:15 1,9 C 99 % 1027,9 hPa 0,0 l/m 17,5 km/h (3 Bft) O 89 1,8 C -6,0 C 24,1 km/h (4 Bft)
16.11.2018 06:10 1,9 C 99 % 1027,9 hPa 0,0 l/m 19,1 km/h (3 Bft) O 96 1,8 C -6,8 C 25,7 km/h (4 Bft)
16.11.2018 06:05 2,0 C 99 % 1027,9 hPa 0,0 l/m 16,9 km/h (3 Bft) O 88 1,9 C -5,6 C 22,5 km/h (4 Bft)
16.11.2018 06:00 2,1 C 98 % 1027,8 hPa 0,0 l/m 18,0 km/h (3 Bft) O 79 1,8 C -6,0 C 24,1 km/h (4 Bft)
16.11.2018 05:55 2,1 C 98 % 1027,8 hPa 0,0 l/m 15,0 km/h (3 Bft) O-NO 67 1,8 C -4,4 C 19,3 km/h (3 Bft)
16.11.2018 05:50 2,1 C 98 % 1027,8 hPa 0,0 l/m 15,6 km/h (3 Bft) O-NO 78 1,8 C -4,8 C 20,9 km/h (4 Bft)
16.11.2018 05:45 2,1 C 98 % 1027,8 hPa 0,0 l/m 15,3 km/h (3 Bft) O 88 1,8 C -4,6 C 22,5 km/h (4 Bft)
16.11.2018 05:40 2,2 C 98 % 1027,9 hPa 0,0 l/m 15,6 km/h (3 Bft) O-NO 69 1,9 C -4,6 C 22,5 km/h (4 Bft)
16.11.2018 05:35 2,2 C 99 % 1027,9 hPa 0,0 l/m 16,9 km/h (3 Bft) O-NO 68 2,1 C -5,3 C 24,1 km/h (4 Bft)
16.11.2018 05:30 2,3 C 99 % 1028,0 hPa 0,0 l/m 17,3 km/h (3 Bft) O-NO 71 2,2 C -5,4 C 24,1 km/h (4 Bft)
16.11.2018 05:25 2,3 C 99 % 1028,0 hPa 0,0 l/m 18,9 km/h (3 Bft) O 96 2,2 C -6,2 C 27,4 km/h (5 Bft)
16.11.2018 05:20 2,4 C 98 % 1027,9 hPa 0,0 l/m 19,3 km/h (3 Bft) O 94 2,1 C -6,2 C 27,4 km/h (5 Bft)
16.11.2018 05:15 2,5 C 99 % 1027,9 hPa 0,0 l/m 17,9 km/h (3 Bft) O 91 2,4 C -5,4 C 24,1 km/h (4 Bft)
16.11.2018 05:10 2,6 C 99 % 1028,0 hPa 0,0 l/m 18,4 km/h (3 Bft) O 81 2,5 C -5,6 C 24,1 km/h (4 Bft)
16.11.2018 05:05 2,7 C 99 % 1027,9 hPa 0,0 l/m 18,9 km/h (3 Bft) O 80 2,6 C -5,7 C 25,7 km/h (4 Bft)
16.11.2018 05:00 2,8 C 99 % 1027,9 hPa 0,0 l/m 16,6 km/h (3 Bft) O-NO 77 2,7 C -4,4 C 22,5 km/h (4 Bft)
16.11.2018 04:55 2,9 C 99 % 1027,8 hPa 0,0 l/m 19,3 km/h (3 Bft) O 88 2,8 C -5,6 C 27,4 km/h (5 Bft)
16.11.2018 04:50 3,0 C 99 % 1027,7 hPa 0,0 l/m 17,9 km/h (3 Bft) O 95 2,9 C -4,8 C 25,7 km/h (4 Bft)
16.11.2018 04:45 3,1 C 99 % 1027,7 hPa 0,0 l/m 18,8 km/h (3 Bft) O-NO 63 3,0 C -5,1 C 22,5 km/h (4 Bft)
16.11.2018 04:40 3,1 C 99 % 1027,7 hPa 0,0 l/m 17,7 km/h (3 Bft) O 86 3,0 C -4,6 C 24,1 km/h (4 Bft)
16.11.2018 04:35 3,1 C 99 % 1027,7 hPa 0,0 l/m 15,2 km/h (3 Bft) O 88 3,0 C -3,3 C 20,9 km/h (4 Bft)
16.11.2018 04:30 3,1 C 99 % 1027,7 hPa 0,0 l/m 17,8 km/h (3 Bft) O 80 3,0 C -4,6 C 27,4 km/h (5 Bft)
16.11.2018 04:25 3,1 C 99 % 1027,7 hPa 0,0 l/m 18,4 km/h (3 Bft) O 87 3,0 C -4,9 C 27,4 km/h (5 Bft)
16.11.2018 04:20 3,1 C 99 % 1027,8 hPa 0,0 l/m 18,4 km/h (3 Bft) O 80 3,0 C -4,9 C 27,4 km/h (5 Bft)
16.11.2018 04:15 3,1 C 99 % 1027,7 hPa 0,0 l/m 17,1 km/h (3 Bft) O-NO 69 3,0 C -4,3 C 24,1 km/h (4 Bft)
16.11.2018 04:10 3,1 C 99 % 1027,7 hPa 0,0 l/m 13,3 km/h (3 Bft) O 100 3,0 C -2,2 C 17,7 km/h (3 Bft)
16.11.2018 04:05 3,1 C 99 % 1027,8 hPa 0,0 l/m 15,9 km/h (3 Bft) O 80 3,0 C -3,7 C 20,9 km/h (4 Bft)
16.11.2018 04:00 3,1 C 99 % 1027,8 hPa 0,0 l/m 16,1 km/h (3 Bft) O-SO 111 3,0 C -3,8 C 22,5 km/h (4 Bft)
16.11.2018 03:55 3,1 C 99 % 1027,8 hPa 0,0 l/m 17,2 km/h (3 Bft) O-SO 105 3,0 C -4,4 C 24,1 km/h (4 Bft)
16.11.2018 03:50 3,2 C 99 % 1027,8 hPa 0,0 l/m 14,8 km/h (3 Bft) O 86 3,1 C -3,0 C 20,9 km/h (4 Bft)
16.11.2018 03:45 3,2 C 99 % 1027,8 hPa 0,0 l/m 16,9 km/h (3 Bft) O 83 3,1 C -4,1 C 24,1 km/h (4 Bft)
16.11.2018 03:40 3,2 C 99 % 1027,9 hPa 0,0 l/m 17,2 km/h (3 Bft) O 96 3,1 C -4,2 C 24,1 km/h (4 Bft)
16.11.2018 03:35 3,2 C 99 % 1027,9 hPa 0,0 l/m 15,2 km/h (3 Bft) O 91 3,1 C -3,2 C 20,9 km/h (4 Bft)
16.11.2018 03:30 3,2 C 99 % 1027,8 hPa 0,0 l/m 17,0 km/h (3 Bft) O 91 3,1 C -4,1 C 22,5 km/h (4 Bft)
16.11.2018 03:25 3,1 C 99 % 1027,7 hPa 0,0 l/m 19,8 km/h (3 Bft) O 94 3,0 C -5,5 C 25,7 km/h (4 Bft)
16.11.2018 03:20 3,1 C 99 % 1027,7 hPa 0,0 l/m 19,7 km/h (3 Bft) O 100 3,0 C -5,5 C 24,1 km/h (4 Bft)
16.11.2018 03:15 3,1 C 99 % 1027,9 hPa 0,0 l/m 22,1 km/h (4 Bft) O-SO 103 3,0 C -6,5 C 27,4 km/h (5 Bft)
16.11.2018 03:10 3,1 C 99 % 1027,9 hPa 0,0 l/m 23,6 km/h (4 Bft) O 101 3,0 C -7,0 C 33,8 km/h (5 Bft)
16.11.2018 03:05 3,1 C 99 % 1027,8 hPa 0,0 l/m 22,6 km/h (4 Bft) O 96 3,0 C -6,7 C 35,4 km/h (5 Bft)
16.11.2018 03:00 3,2 C 99 % 1027,9 hPa 0,0 l/m 23,8 km/h (4 Bft) O 84 3,1 C -7,0 C 30,6 km/h (5 Bft)
16.11.2018 02:55 3,2 C 99 % 1027,9 hPa 0,0 l/m 19,6 km/h (3 Bft) O 86 3,1 C -5,3 C 29,0 km/h (5 Bft)
16.11.2018 02:50 3,3 C 99 % 1028,0 hPa 0,0 l/m 18,8 km/h (3 Bft) O 89 3,2 C -4,8 C 27,4 km/h (5 Bft)
16.11.2018 02:45 3,3 C 99 % 1028,0 hPa 0,0 l/m 18,9 km/h (3 Bft) O 87 3,2 C -4,9 C 22,5 km/h (4 Bft)
16.11.2018 02:40 3,3 C 99 % 1028,0 hPa 0,0 l/m 15,8 km/h (3 Bft) O 94 3,2 C -3,4 C 20,9 km/h (4 Bft)
16.11.2018 02:35 3,3 C 99 % 1028,1 hPa 0,0 l/m 17,6 km/h (3 Bft) O 88 3,2 C -4,3 C 25,7 km/h (4 Bft)
16.11.2018 02:30 3,4 C 99 % 1028,2 hPa 0,0 l/m 17,6 km/h (3 Bft) O 94 3,3 C -4,2 C 22,5 km/h (4 Bft)
16.11.2018 02:25 3,3 C 99 % 1028,1 hPa 0,0 l/m 20,9 km/h (4 Bft) O 91 3,2 C -5,7 C 29,0 km/h (5 Bft)
16.11.2018 02:20 3,4 C 99 % 1028,2 hPa 0,0 l/m 21,9 km/h (4 Bft) O-SO 103 3,3 C -6,0 C 29,0 km/h (5 Bft)
16.11.2018 02:15 3,3 C 99 % 1028,2 hPa 0,0 l/m 20,2 km/h (4 Bft) O 84 3,2 C -5,5 C 27,4 km/h (5 Bft)
16.11.2018 02:10 3,3 C 99 % 1028,3 hPa 0,0 l/m 17,6 km/h (3 Bft) O 84 3,2 C -4,3 C 22,5 km/h (4 Bft)
16.11.2018 02:05 3,3 C 99 % 1028,3 hPa 0,0 l/m 18,6 km/h (3 Bft) O 86 3,2 C -4,8 C 25,7 km/h (4 Bft)
16.11.2018 02:00 3,3 C 99 % 1028,2 hPa 0,0 l/m 18,6 km/h (3 Bft) O 82 3,2 C -4,8 C 24,1 km/h (4 Bft)
16.11.2018 01:55 3,3 C 99 % 1028,2 hPa 0,0 l/m 20,7 km/h (4 Bft) O 94 3,2 C -5,7 C 27,4 km/h (5 Bft)
16.11.2018 01:50 3,3 C 99 % 1028,2 hPa 0,0 l/m 20,0 km/h (4 Bft) O 97 3,2 C -5,4 C 27,4 km/h (5 Bft)
16.11.2018 01:45 3,3 C 99 % 1028,1 hPa 0,0 l/m 19,5 km/h (3 Bft) O 98 3,2 C -5,2 C 25,7 km/h (4 Bft)
16.11.2018 01:40 3,3 C 99 % 1028,2 hPa 0,0 l/m 22,2 km/h (4 Bft) O 93 3,2 C -6,2 C 29,0 km/h (5 Bft)
16.11.2018 01:35 3,3 C 99 % 1028,1 hPa 0,0 l/m 23,4 km/h (4 Bft) O 90 3,2 C -6,7 C 30,6 km/h (5 Bft)
16.11.2018 01:30 3,3 C 99 % 1028,1 hPa 0,0 l/m 20,1 km/h (4 Bft) O-NO 75 3,2 C -5,4 C 30,6 km/h (5 Bft)
16.11.2018 01:25 3,4 C 99 % 1028,1 hPa 0,0 l/m 23,1 km/h (4 Bft) O 88 3,3 C -6,4 C 27,4 km/h (5 Bft)
16.11.2018 01:20 3,4 C 99 % 1028,2 hPa 0,0 l/m 18,9 km/h (3 Bft) O-SO 105 3,3 C -4,8 C 27,4 km/h (5 Bft)
16.11.2018 01:15 3,4 C 99 % 1028,2 hPa 0,0 l/m 19,4 km/h (3 Bft) O 88 3,3 C -5,0 C 24,1 km/h (4 Bft)
16.11.2018 01:10 3,3 C 99 % 1028,1 hPa 0,0 l/m 20,4 km/h (4 Bft) O 84 3,2 C -5,5 C 27,4 km/h (5 Bft)
16.11.2018 01:05 3,3 C 99 % 1028,2 hPa 0,0 l/m 18,2 km/h (3 Bft) O 96 3,2 C -4,6 C 24,1 km/h (4 Bft)
16.11.2018 01:00 3,3 C 99 % 1028,1 hPa 0,0 l/m 19,5 km/h (3 Bft) O 98 3,2 C -5,2 C 25,7 km/h (4 Bft)
16.11.2018 00:55 3,3 C 99 % 1028,1 hPa 0,0 l/m 17,7 km/h (3 Bft) O 92 3,2 C -4,3 C 22,5 km/h (4 Bft)
16.11.2018 00:50 3,3 C 99 % 1028,1 hPa 0,0 l/m 18,8 km/h (3 Bft) O 92 3,2 C -4,8 C 24,1 km/h (4 Bft)
16.11.2018 00:45 3,3 C 99 % 1028,1 hPa 0,0 l/m 17,7 km/h (3 Bft) O 96 3,2 C -4,3 C 24,1 km/h (4 Bft)
16.11.2018 00:40 3,3 C 99 % 1028,1 hPa 0,0 l/m 17,5 km/h (3 Bft) O 92 3,2 C -4,3 C 22,5 km/h (4 Bft)
16.11.2018 00:35 3,3 C 99 % 1028,1 hPa 0,0 l/m 18,6 km/h (3 Bft) O 95 3,2 C -4,8 C 24,1 km/h (4 Bft)
16.11.2018 00:30 3,3 C 99 % 1028,1 hPa 0,0 l/m 17,5 km/h (3 Bft) O 94 3,2 C -4,3 C 22,5 km/h (4 Bft)
16.11.2018 00:25 3,3 C 99 % 1028,1 hPa 0,0 l/m 16,6 km/h (3 Bft) O 84 3,2 C -3,8 C 22,5 km/h (4 Bft)
16.11.2018 00:20 3,2 C 99 % 1028,3 hPa 0,0 l/m 16,4 km/h (3 Bft) O 98 3,1 C -3,8 C 24,1 km/h (4 Bft)
16.11.2018 00:15 3,2 C 99 % 1028,1 hPa 0,0 l/m 17,1 km/h (3 Bft) O 88 3,1 C -4,2 C 22,5 km/h (4 Bft)
16.11.2018 00:10 3,2 C 99 % 1028,2 hPa 0,0 l/m 17,6 km/h (3 Bft) O 92 3,1 C -4,4 C 25,7 km/h (4 Bft)
16.11.2018 00:05 3,2 C 99 % 1028,1 hPa 0,0 l/m 18,3 km/h (3 Bft) O 86 3,1 C -4,8 C 22,5 km/h (4 Bft)
16.11.2018 00:00 3,2 C 99 % 1028,1 hPa 0,0 l/m 17,4 km/h (3 Bft) O 93 3,1 C -4,3 C 22,5 km/h (4 Bft)
15.11.2018 23:55 3,1 C 99 % 1028,1 hPa 0,0 l/m 18,2 km/h (3 Bft) O 89 3,0 C -4,8 C 24,1 km/h (4 Bft)
15.11.2018 23:50 3,1 C 99 % 1028,0 hPa 0,0 l/m 16,6 km/h (3 Bft) O 95 3,0 C -4,1 C 20,9 km/h (4 Bft)
15.11.2018 23:45 3,1 C 99 % 1028,0 hPa 0,0 l/m 16,0 km/h (3 Bft) O 93 3,0 C -3,8 C 20,9 km/h (4 Bft)
15.11.2018 23:40 3,1 C 99 % 1028,0 hPa 0,0 l/m 14,9 km/h (3 Bft) O-SO 102 3,0 C -3,2 C 17,7 km/h (3 Bft)
15.11.2018 23:35 3,1 C 99 % 1028,0 hPa 0,0 l/m 14,4 km/h (3 Bft) O 92 3,0 C -2,9 C 17,7 km/h (3 Bft)
15.11.2018 23:30 3,1 C 99 % 1027,9 hPa 0,0 l/m 14,5 km/h (3 Bft) O 97 3,0 C -2,9 C 19,3 km/h (3 Bft)
15.11.2018 23:25 3,1 C 99 % 1028,0 hPa 0,0 l/m 14,0 km/h (3 Bft) O 88 3,0 C -2,7 C 17,7 km/h (3 Bft)
15.11.2018 23:20 3,0 C 99 % 1027,8 hPa 0,0 l/m 15,4 km/h (3 Bft) O 96 2,9 C -3,6 C 19,3 km/h (3 Bft)
15.11.2018 23:15 3,0 C 99 % 1027,8 hPa 0,0 l/m 13,4 km/h (3 Bft) O 100 2,9 C -2,4 C 19,3 km/h (3 Bft)
15.11.2018 23:10 3,0 C 99 % 1027,7 hPa 0,0 l/m 14,0 km/h (3 Bft) O 99 2,9 C -2,8 C 17,7 km/h (3 Bft)
15.11.2018 23:05 3,0 C 99 % 1027,6 hPa 0,0 l/m 11,8 km/h (2 Bft) O-SO 104 2,9 C -1,4 C 14,5 km/h (3 Bft)
15.11.2018 23:00 3,0 C 99 % 1027,6 hPa 0,0 l/m 11,0 km/h (2 Bft) O-SO 109 2,9 C -0,9 C 14,5 km/h (3 Bft)
15.11.2018 22:55 3,0 C 99 % 1027,7 hPa 0,0 l/m 14,0 km/h (3 Bft) O-SO 107 2,9 C -2,8 C 17,7 km/h (3 Bft)
15.11.2018 22:50 3,0 C 99 % 1027,6 hPa 0,0 l/m 14,5 km/h (3 Bft) O-SO 116 2,9 C -3,1 C 19,3 km/h (3 Bft)
15.11.2018 22:45 3,0 C 99 % 1027,7 hPa 0,0 l/m 17,4 km/h (3 Bft) O 98 2,9 C -4,6 C 20,9 km/h (4 Bft)
15.11.2018 22:40 3,0 C 99 % 1027,7 hPa 0,0 l/m 17,1 km/h (3 Bft) O-SO 103 2,9 C -4,4 C 20,9 km/h (4 Bft)
15.11.2018 22:35 2,9 C 99 % 1027,7 hPa 0,0 l/m 17,2 km/h (3 Bft) O-SO 102 2,8 C -4,6 C 24,1 km/h (4 Bft)
15.11.2018 22:30 2,9 C 99 % 1027,8 hPa 0,0 l/m 15,9 km/h (3 Bft) O-SO 109 2,8 C -4,0 C 19,3 km/h (3 Bft)
15.11.2018 22:25 2,9 C 99 % 1027,8 hPa 0,0 l/m 15,1 km/h (3 Bft) O-SO 105 2,8 C -3,5 C 19,3 km/h (3 Bft)
15.11.2018 22:20 2,9 C 99 % 1027,8 hPa 0,0 l/m 17,4 km/h (3 Bft) O-SO 120 2,8 C -4,7 C 22,5 km/h (4 Bft)
15.11.2018 22:15 2,9 C 99 % 1027,7 hPa 0,0 l/m 17,2 km/h (3 Bft) O-SO 107 2,8 C -4,6 C 22,5 km/h (4 Bft)
15.11.2018 22:10 2,9 C 99 % 1027,8 hPa 0,0 l/m 16,8 km/h (3 Bft) O-SO 109 2,8 C -4,4 C 20,9 km/h (4 Bft)
15.11.2018 22:05 3,0 C 99 % 1027,9 hPa 0,0 l/m 17,7 km/h (3 Bft) O-SO 103 2,9 C -4,7 C 22,5 km/h (4 Bft)
15.11.2018 22:00 3,0 C 99 % 1027,8 hPa 0,0 l/m 13,0 km/h (3 Bft) O 101 2,9 C -2,2 C 16,1 km/h (3 Bft)
15.11.2018 21:55 2,9 C 99 % 1027,8 hPa 0,0 l/m 16,1 km/h (3 Bft) O 98 2,8 C -4,1 C 19,3 km/h (3 Bft)
15.11.2018 21:50 2,9 C 99 % 1027,8 hPa 0,0 l/m 15,9 km/h (3 Bft) O-SO 109 2,8 C -4,0 C 20,9 km/h (4 Bft)
15.11.2018 21:45 3,0 C 99 % 1027,7 hPa 0,0 l/m 15,7 km/h (3 Bft) O-SO 118 2,9 C -3,7 C 20,9 km/h (4 Bft)
15.11.2018 21:40 2,9 C 99 % 1027,7 hPa 0,0 l/m 16,2 km/h (3 Bft) O 99 2,8 C -4,1 C 22,5 km/h (4 Bft)
15.11.2018 21:35 2,9 C 99 % 1027,8 hPa 0,0 l/m 18,4 km/h (3 Bft) O-SO 104 2,8 C -5,2 C 24,1 km/h (4 Bft)
15.11.2018 21:30 2,9 C 99 % 1027,8 hPa 0,0 l/m 16,9 km/h (3 Bft) O 100 2,8 C -4,5 C 24,1 km/h (4 Bft)
15.11.2018 21:25 3,0 C 99 % 1027,9 hPa 0,0 l/m 15,0 km/h (3 Bft) O 96 2,9 C -3,3 C 19,3 km/h (3 Bft)
15.11.2018 21:20 2,9 C 99 % 1027,9 hPa 0,0 l/m 17,2 km/h (3 Bft) O-SO 106 2,8 C -4,6 C 22,5 km/h (4 Bft)
15.11.2018 21:15 2,9 C 99 % 1027,9 hPa 0,0 l/m 17,7 km/h (3 Bft) O 100 2,8 C -4,8 C 22,5 km/h (4 Bft)
15.11.2018 21:10 2,9 C 99 % 1027,9 hPa 0,0 l/m 18,3 km/h (3 Bft) O 97 2,8 C -5,1 C 27,4 km/h (5 Bft)
15.11.2018 21:05 3,0 C 99 % 1027,9 hPa 0,0 l/m 15,5 km/h (3 Bft) O-SO 106 2,9 C -3,6 C 20,9 km/h (4 Bft)
15.11.2018 21:00 3,0 C 99 % 1027,9 hPa 0,0 l/m 13,3 km/h (3 Bft) O 90 2,9 C -2,4 C 17,7 km/h (3 Bft)
15.11.2018 20:55 3,1 C 99 % 1027,9 hPa 0,0 l/m 14,7 km/h (3 Bft) O 99 3,0 C -3,1 C 19,3 km/h (3 Bft)
15.11.2018 20:50 3,1 C 99 % 1027,9 hPa 0,0 l/m 14,9 km/h (3 Bft) O 79 3,0 C -3,2 C 19,3 km/h (3 Bft)
15.11.2018 20:45 3,1 C 99 % 1027,9 hPa 0,0 l/m 14,0 km/h (3 Bft) O-NO 74 3,0 C -2,7 C 19,3 km/h (3 Bft)
15.11.2018 20:40 3,2 C 99 % 1027,9 hPa 0,0 l/m 17,3 km/h (3 Bft) O 98 3,1 C -4,3 C 22,5 km/h (4 Bft)
15.11.2018 20:35 3,1 C 99 % 1027,8 hPa 0,0 l/m 19,1 km/h (3 Bft) O-SO 115 3,0 C -5,2 C 24,1 km/h (4 Bft)
15.11.2018 20:30 3,1 C 99 % 1027,8 hPa 0,0 l/m 20,3 km/h (4 Bft) O-SO 103 3,0 C -5,8 C 27,4 km/h (5 Bft)
15.11.2018 20:25 3,1 C 99 % 1027,8 hPa 0,0 l/m 18,9 km/h (3 Bft) O 96 3,0 C -5,1 C 25,7 km/h (4 Bft)
15.11.2018 20:20 3,1 C 99 % 1027,8 hPa 0,0 l/m 18,3 km/h (3 Bft) O 98 3,0 C -4,9 C 27,4 km/h (5 Bft)
15.11.2018 20:15 3,2 C 99 % 1027,8 hPa 0,0 l/m 19,0 km/h (3 Bft) O 82 3,1 C -5,1 C 25,7 km/h (4 Bft)
15.11.2018 20:10 3,2 C 99 % 1027,8 hPa 0,0 l/m 17,2 km/h (3 Bft) O 84 3,1 C -4,2 C 25,7 km/h (4 Bft)
15.11.2018 20:05 3,3 C 99 % 1027,8 hPa 0,0 l/m 16,5 km/h (3 Bft) O 88 3,2 C -3,8 C 22,5 km/h (4 Bft)
15.11.2018 20:00 3,3 C 99 % 1027,8 hPa 0,0 l/m 17,1 km/h (3 Bft) O-SO 103 3,2 C -4,1 C 20,9 km/h (4 Bft)
15.11.2018 19:55 3,3 C 99 % 1027,9 hPa 0,0 l/m 18,1 km/h (3 Bft) O 98 3,2 C -4,5 C 25,7 km/h (4 Bft)
15.11.2018 19:50 3,3 C 99 % 1027,8 hPa 0,0 l/m 16,8 km/h (3 Bft) O-SO 115 3,2 C -3,9 C 22,5 km/h (4 Bft)
15.11.2018 19:45 3,3 C 99 % 1027,8 hPa 0,0 l/m 18,8 km/h (3 Bft) O-SO 113 3,2 C -4,8 C 24,1 km/h (4 Bft)
15.11.2018 19:40 3,3 C 99 % 1027,9 hPa 0,0 l/m 21,1 km/h (4 Bft) O 99 3,2 C -5,8 C 25,7 km/h (4 Bft)
15.11.2018 19:35 3,4 C 99 % 1027,9 hPa 0,0 l/m 18,7 km/h (3 Bft) O-SO 116 3,3 C -4,7 C 24,1 km/h (4 Bft)
15.11.2018 19:30 3,4 C 99 % 1027,8 hPa 0,0 l/m 14,4 km/h (3 Bft) O-SO 106 3,3 C -2,5 C 20,9 km/h (4 Bft)
15.11.2018 19:25 3,4 C 99 % 1027,8 hPa 0,0 l/m 10,7 km/h (2 Bft) O-SO 102 3,3 C -0,2 C 12,9 km/h (3 Bft)
15.11.2018 19:20 3,3 C 99 % 1027,8 hPa 0,0 l/m 13,1 km/h (3 Bft) O-SO 107 3,2 C -1,9 C 19,3 km/h (3 Bft)
15.11.2018 19:15 3,3 C 99 % 1027,7 hPa 0,0 l/m 17,6 km/h (3 Bft) O 100 3,2 C -4,3 C 20,9 km/h (4 Bft)
15.11.2018 19:10 3,3 C 99 % 1027,8 hPa 0,0 l/m 18,0 km/h (3 Bft) O-SO 113 3,2 C -4,5 C 22,5 km/h (4 Bft)
15.11.2018 19:05 3,3 C 99 % 1027,8 hPa 0,0 l/m 19,4 km/h (3 Bft) O-SO 115 3,2 C -5,1 C 24,1 km/h (4 Bft)
15.11.2018 19:00 3,3 C 99 % 1027,8 hPa 0,0 l/m 16,8 km/h (3 Bft) O 96 3,2 C -3,9 C 22,5 km/h (4 Bft)
15.11.2018 18:55 3,3 C 99 % 1027,8 hPa 0,0 l/m 13,8 km/h (3 Bft) O 100 3,2 C -2,3 C 19,3 km/h (3 Bft)
15.11.2018 18:50 3,3 C 99 % 1027,8 hPa 0,0 l/m 12,7 km/h (3 Bft) O-SO 109 3,2 C -1,6 C 17,7 km/h (3 Bft)
15.11.2018 18:45 3,3 C 99 % 1027,7 hPa 0,0 l/m 11,5 km/h (2 Bft) O-SO 121 3,2 C -0,9 C 17,7 km/h (3 Bft)
15.11.2018 18:40 3,3 C 99 % 1027,6 hPa 0,0 l/m 11,3 km/h (2 Bft) O-SO 104 3,2 C -0,7 C 16,1 km/h (3 Bft)
15.11.2018 18:35 3,3 C 99 % 1027,6 hPa 0,0 l/m 9,4 km/h (2 Bft) SO 128 3,2 C 0,7 C 14,5 km/h (3 Bft)
15.11.2018 18:30 3,3 C 99 % 1027,6 hPa 0,0 l/m 8,8 km/h (2 Bft) O-SO 113 3,2 C 1,1 C 12,9 km/h (3 Bft)
15.11.2018 18:25 3,3 C 99 % 1027,6 hPa 0,0 l/m 10,4 km/h (2 Bft) SO 126 3,2 C -0,1 C 16,1 km/h (3 Bft)
15.11.2018 18:20 3,2 C 99 % 1027,6 hPa 0,0 l/m 11,7 km/h (2 Bft) SO 125 3,1 C -1,1 C 17,7 km/h (3 Bft)
15.11.2018 18:15 3,2 C 99 % 1027,6 hPa 0,0 l/m 12,9 km/h (3 Bft) O 97 3,1 C -1,9 C 16,1 km/h (3 Bft)
15.11.2018 18:10 3,3 C 99 % 1027,5 hPa 0,0 l/m 16,1 km/h (3 Bft) O 92 3,2 C -3,6 C 20,9 km/h (4 Bft)
15.11.2018 18:05 3,3 C 99 % 1027,6 hPa 0,0 l/m 15,7 km/h (3 Bft) O-SO 105 3,2 C -3,4 C 20,9 km/h (4 Bft)
15.11.2018 18:00 3,3 C 99 % 1027,6 hPa 0,0 l/m 15,3 km/h (3 Bft) O-SO 108 3,2 C -3,1 C 22,5 km/h (4 Bft)
15.11.2018 17:55 3,3 C 99 % 1027,4 hPa 0,0 l/m 11,2 km/h (2 Bft) O-SO 103 3,2 C -0,7 C 16,1 km/h (3 Bft)
15.11.2018 17:50 3,3 C 99 % 1027,5 hPa 0,0 l/m 12,1 km/h (2 Bft) O 100 3,2 C -1,3 C 14,5 km/h (3 Bft)
15.11.2018 17:45 3,3 C 99 % 1027,6 hPa 0,0 l/m 15,6 km/h (3 Bft) O 101 3,2 C -3,3 C 20,9 km/h (4 Bft)
15.11.2018 17:40 3,3 C 99 % 1027,5 hPa 0,0 l/m 15,0 km/h (3 Bft) O-SO 114 3,2 C -3,0 C 19,3 km/h (3 Bft)
15.11.2018 17:35 3,2 C 99 % 1027,4 hPa 0,0 l/m 17,2 km/h (3 Bft) O 100 3,1 C -4,2 C 22,5 km/h (4 Bft)
15.11.2018 17:30 3,2 C 99 % 1027,4 hPa 0,0 l/m 16,5 km/h (3 Bft) O 100 3,1 C -3,9 C 20,9 km/h (4 Bft)
15.11.2018 17:25 3,2 C 99 % 1027,4 hPa 0,0 l/m 16,4 km/h (3 Bft) O 98 3,1 C -3,8 C 20,9 km/h (4 Bft)
15.11.2018 17:20 3,3 C 99 % 1027,4 hPa 0,0 l/m 13,1 km/h (3 Bft) O 80 3,2 C -1,9 C 16,1 km/h (3 Bft)
15.11.2018 17:15 3,3 C 99 % 1027,4 hPa 0,2 l/m 12,3 km/h (2 Bft) O 90 3,2 C -1,4 C 17,7 km/h (3 Bft)
15.11.2018 17:10 3,3 C 99 % 1027,3 hPa 0,0 l/m 7,5 km/h (2 Bft) O-SO 108 3,2 C 2,3 C 16,1 km/h (3 Bft)
15.11.2018 17:05 3,3 C 99 % 1027,3 hPa 0,0 l/m 6,2 km/h (2 Bft) O 99 3,2 C 3,3 C 12,9 km/h (3 Bft)
15.11.2018 17:00 3,3 C 99 % 1027,2 hPa 0,0 l/m 11,6 km/h (2 Bft) O-NO 77 3,2 C -0,9 C 16,1 km/h (3 Bft)
15.11.2018 16:55 3,3 C 99 % 1027,3 hPa 0,0 l/m 11,2 km/h (2 Bft) O 93 3,2 C -0,7 C 16,1 km/h (3 Bft)
15.11.2018 16:50 3,3 C 99 % 1027,3 hPa 0,0 l/m 12,4 km/h (2 Bft) O-SO 112 3,2 C -1,5 C 17,7 km/h (3 Bft)
15.11.2018 16:45 3,4 C 99 % 1027,4 hPa 0,0 l/m 13,8 km/h (3 Bft) O 97 3,3 C -2,2 C 16,1 km/h (3 Bft)
15.11.2018 16:40 3,4 C 99 % 1027,4 hPa 0,0 l/m 12,0 km/h (2 Bft) O-SO 115 3,3 C -1,1 C 16,1 km/h (3 Bft)
15.11.2018 16:35 3,4 C 99 % 1027,3 hPa 0,0 l/m 11,8 km/h (2 Bft) O 94 3,3 C -1,0 C 19,3 km/h (3 Bft)
15.11.2018 16:30 3,4 C 99 % 1027,3 hPa 0,0 l/m 13,6 km/h (3 Bft) O 101 3,3 C -2,1 C 19,3 km/h (3 Bft)
15.11.2018 16:25 3,5 C 99 % 1027,2 hPa 0,0 l/m 13,8 km/h (3 Bft) O-SO 106 3,4 C -2,1 C 17,7 km/h (3 Bft)
15.11.2018 16:20 3,6 C 99 % 1027,3 hPa 0,0 l/m 8,0 km/h (2 Bft) O 80 3,5 C 2,1 C 14,5 km/h (3 Bft)
15.11.2018 16:15 3,6 C 99 % 1027,2 hPa 0,0 l/m 6,9 km/h (2 Bft) O 88 3,5 C 3,1 C 12,9 km/h (3 Bft)
15.11.2018 16:10 3,7 C 99 % 1027,3 hPa 0,0 l/m 9,6 km/h (2 Bft) O 100 3,6 C 0,9 C 17,7 km/h (3 Bft)
15.11.2018 16:05 3,8 C 99 % 1027,3 hPa 0,0 l/m 9,6 km/h (2 Bft) O 95 3,7 C 1,0 C 14,5 km/h (3 Bft)
15.11.2018 16:00 3,8 C 99 % 1027,4 hPa 0,0 l/m 2,7 km/h (1 Bft) O 86 3,7 C 3,8 C 12,9 km/h (3 Bft)
15.11.2018 15:55 3,8 C 99 % 1027,3 hPa 0,0 l/m 2,8 km/h (1 Bft) O-SO 103 3,7 C 3,8 C 11,3 km/h (2 Bft)
15.11.2018 15:50 3,8 C 99 % 1027,3 hPa 0,0 l/m 2,8 km/h (1 Bft) O-SO 119 3,7 C 3,8 C 11,3 km/h (2 Bft)
15.11.2018 15:45 3,7 C 99 % 1027,3 hPa 0,0 l/m 9,6 km/h (2 Bft) O 88 3,6 C 0,9 C 12,9 km/h (3 Bft)
15.11.2018 15:40 3,7 C 99 % 1027,3 hPa 0,0 l/m 12,1 km/h (2 Bft) O 90 3,6 C -0,8 C 16,1 km/h (3 Bft)
15.11.2018 15:35 3,7 C 99 % 1027,3 hPa 0,0 l/m 12,6 km/h (3 Bft) O-SO 109 3,6 C -1,1 C 16,1 km/h (3 Bft)
15.11.2018 15:30 3,7 C 99 % 1027,4 hPa 0,0 l/m 10,1 km/h (2 Bft) O-SO 103 3,6 C 0,6 C 14,5 km/h (3 Bft)
15.11.2018 15:25 3,7 C 99 % 1027,4 hPa 0,0 l/m 13,5 km/h (3 Bft) O 99 3,6 C -1,7 C 19,3 km/h (3 Bft)
15.11.2018 15:20 3,8 C 99 % 1027,4 hPa 0,0 l/m 11,2 km/h (2 Bft) O-SO 103 3,7 C -0,1 C 19,3 km/h (3 Bft)
15.11.2018 15:15 3,8 C 99 % 1027,4 hPa 0,0 l/m 10,5 km/h (2 Bft) O-SO 106 3,7 C 0,4 C 16,1 km/h (3 Bft)
15.11.2018 15:10 3,8 C 99 % 1027,4 hPa 0,0 l/m 9,0 km/h (2 Bft) O-SO 106 3,7 C 1,5 C 12,9 km/h (3 Bft)
15.11.2018 15:05 3,7 C 99 % 1027,4 hPa 0,0 l/m 9,1 km/h (2 Bft) SO 126 3,6 C 1,3 C 14,5 km/h (3 Bft)
15.11.2018 15:00 3,7 C 99 % 1027,4 hPa 0,0 l/m 12,0 km/h (2 Bft) O-SO 107 3,6 C -0,7 C 16,1 km/h (3 Bft)
15.11.2018 14:55 3,7 C 99 % 1027,4 hPa 0,0 l/m 9,1 km/h (2 Bft) O-SO 109 3,6 C 1,3 C 12,9 km/h (3 Bft)
15.11.2018 14:50 3,6 C 99 % 1027,4 hPa 0,0 l/m 8,3 km/h (2 Bft) O 99 3,5 C 1,9 C 12,9 km/h (3 Bft)
15.11.2018 14:45 3,7 C 99 % 1027,4 hPa 0,0 l/m 11,0 km/h (2 Bft) O 89 3,6 C -0,1 C 16,1 km/h (3 Bft)
15.11.2018 14:40 3,7 C 99 % 1027,3 hPa 0,0 l/m 9,5 km/h (2 Bft) O-SO 113 3,6 C 1,0 C 17,7 km/h (3 Bft)
15.11.2018 14:35 3,7 C 99 % 1027,3 hPa 0,0 l/m 9,9 km/h (2 Bft) O-SO 118 3,6 C 0,7 C 17,7 km/h (3 Bft)
15.11.2018 14:30 3,7 C 99 % 1027,4 hPa 0,0 l/m 13,0 km/h (3 Bft) O 82 3,6 C -1,4 C 19,3 km/h (3 Bft)
15.11.2018 14:25 3,6 C 99 % 1027,4 hPa 0,0 l/m 9,4 km/h (2 Bft) O-SO 112 3,5 C 1,0 C 12,9 km/h (3 Bft)
15.11.2018 14:20 3,6 C 99 % 1027,4 hPa 0,0 l/m 7,3 km/h (2 Bft) SO 127 3,5 C 2,8 C 12,9 km/h (3 Bft)
15.11.2018 14:15 3,6 C 99 % 1027,4 hPa 0,0 l/m 9,3 km/h (2 Bft) SO 124 3,5 C 1,1 C 14,5 km/h (3 Bft)
15.11.2018 14:10 3,6 C 99 % 1027,5 hPa 0,0 l/m 11,3 km/h (2 Bft) O-SO 112 3,5 C -0,4 C 14,5 km/h (3 Bft)
15.11.2018 14:05 3,6 C 99 % 1027,5 hPa 0,0 l/m 9,9 km/h (2 Bft) O 94 3,5 C 0,6 C 16,1 km/h (3 Bft)
15.11.2018 14:00 3,5 C 99 % 1027,5 hPa 0,0 l/m 10,0 km/h (2 Bft) O 97 3,4 C 0,4 C 14,5 km/h (3 Bft)
15.11.2018 13:55 3,6 C 99 % 1027,4 hPa 0,0 l/m 11,4 km/h (2 Bft) O-NO 76 3,5 C -0,5 C 16,1 km/h (3 Bft)
15.11.2018 13:50 3,7 C 99 % 1027,4 hPa 0,0 l/m 8,8 km/h (2 Bft) O-NO 74 3,6 C 1,6 C 12,9 km/h (3 Bft)
15.11.2018 13:45 3,6 C 99 % 1027,5 hPa 0,0 l/m 7,4 km/h (2 Bft) SO 135 3,5 C 2,7 C 12,9 km/h (3 Bft)
15.11.2018 13:40 3,6 C 99 % 1027,6 hPa 0,0 l/m 7,3 km/h (2 Bft) O 94 3,5 C 2,8 C 12,9 km/h (3 Bft)
15.11.2018 13:35 3,6 C 99 % 1027,7 hPa 0,0 l/m 9,9 km/h (2 Bft) O-SO 102 3,5 C 0,6 C 14,5 km/h (3 Bft)
15.11.2018 13:30 3,6 C 99 % 1027,7 hPa 0,0 l/m 6,4 km/h (2 Bft) O-SO 105 3,5 C 3,6 C 11,3 km/h (2 Bft)
15.11.2018 13:25 3,6 C 99 % 1027,7 hPa 0,0 l/m 9,0 km/h (2 Bft) O-SO 110 3,5 C 1,3 C 14,5 km/h (3 Bft)
15.11.2018 13:20 3,5 C 99 % 1027,8 hPa 0,0 l/m 8,6 km/h (2 Bft) O-SO 111 3,4 C 1,5 C 16,1 km/h (3 Bft)
15.11.2018 13:15 3,5 C 99 % 1027,7 hPa 0,0 l/m 6,9 km/h (2 Bft) O 98 3,4 C 3,0 C 12,9 km/h (3 Bft)
15.11.2018 13:10 3,6 C 99 % 1027,7 hPa 0,0 l/m 9,4 km/h (2 Bft) O 100 3,5 C 1,0 C 12,9 km/h (3 Bft)
15.11.2018 13:05 3,5 C 99 % 1027,7 hPa 0,0 l/m 11,5 km/h (2 Bft) O-SO 109 3,4 C -0,6 C 16,1 km/h (3 Bft)
15.11.2018 13:00 3,4 C 99 % 1027,7 hPa 0,0 l/m 10,2 km/h (2 Bft) SO 128 3,3 C 0,2 C 16,1 km/h (3 Bft)
15.11.2018 12:55 3,4 C 99 % 1027,7 hPa 0,0 l/m 13,3 km/h (3 Bft) O-SO 113 3,3 C -1,9 C 17,7 km/h (3 Bft)
15.11.2018 12:50 3,6 C 99 % 1027,7 hPa 0,0 l/m 9,6 km/h (2 Bft) O 91 3,5 C 0,8 C 19,3 km/h (3 Bft)
15.11.2018 12:45 3,6 C 99 % 1027,7 hPa 0,0 l/m 6,3 km/h (2 Bft) O-SO 109 3,5 C 3,6 C 11,3 km/h (2 Bft)
15.11.2018 12:40 3,5 C 99 % 1027,6 hPa 0,0 l/m 9,3 km/h (2 Bft) O-SO 123 3,4 C 1,0 C 14,5 km/h (3 Bft)
15.11.2018 12:35 3,4 C 99 % 1027,6 hPa 0,0 l/m 12,7 km/h (3 Bft) O-SO 114 3,3 C -1,5 C 19,3 km/h (3 Bft)
15.11.2018 12:30 3,6 C 99 % 1027,6 hPa 0,0 l/m 10,8 km/h (2 Bft) O 88 3,5 C -0,1 C 16,1 km/h (3 Bft)
15.11.2018 12:25 3,6 C 99 % 1027,7 hPa 0,0 l/m 10,5 km/h (2 Bft) O 87 3,5 C 0,2 C 14,5 km/h (3 Bft)
15.11.2018 12:20 3,6 C 99 % 1027,6 hPa 0,0 l/m 10,6 km/h (2 Bft) O-SO 106 3,5 C 0,1 C 16,1 km/h (3 Bft)
15.11.2018 12:15 3,5 C 99 % 1027,7 hPa 0,0 l/m 9,4 km/h (2 Bft) O-SO 103 3,4 C 0,9 C 14,5 km/h (3 Bft)
15.11.2018 12:10 3,5 C 99 % 1027,7 hPa 0,0 l/m 10,5 km/h (2 Bft) O 96 3,4 C 0,1 C 14,5 km/h (3 Bft)
15.11.2018 12:05 3,5 C 99 % 1027,8 hPa 0,0 l/m 12,9 km/h (3 Bft) O 94 3,4 C -1,5 C 17,7 km/h (3 Bft)
15.11.2018 12:00 3,5 C 99 % 1027,9 hPa 0,0 l/m 12,7 km/h (3 Bft) O 90 3,4 C -1,4 C 17,7 km/h (3 Bft)
15.11.2018 11:55 3,4 C 99 % 1027,9 hPa 0,0 l/m 14,6 km/h (3 Bft) O 85 3,3 C -2,6 C 19,3 km/h (3 Bft)
15.11.2018 11:50 3,6 C 99 % 1027,9 hPa 0,0 l/m 13,6 km/h (3 Bft) O 82 3,5 C -1,8 C 17,7 km/h (3 Bft)
15.11.2018 11:45 3,6 C 99 % 1027,9 hPa 0,0 l/m 11,6 km/h (2 Bft) O 85 3,5 C -0,6 C 16,1 km/h (3 Bft)
15.11.2018 11:40 3,6 C 99 % 1027,9 hPa 0,0 l/m 12,6 km/h (3 Bft) O 99 3,5 C -1,2 C 17,7 km/h (3 Bft)
15.11.2018 11:35 3,6 C 99 % 1027,9 hPa 0,0 l/m 12,3 km/h (2 Bft) O 88 3,5 C -1,0 C 17,7 km/h (3 Bft)
15.11.2018 11:30 3,6 C 99 % 1027,9 hPa 0,0 l/m 10,7 km/h (2 Bft) O 96 3,5 C 0,0 C 14,5 km/h (3 Bft)
15.11.2018 11:25 3,5 C 99 % 1028,0 hPa 0,0 l/m 10,1 km/h (2 Bft) O 94 3,4 C 0,3 C 16,1 km/h (3 Bft)
15.11.2018 11:20 3,4 C 99 % 1028,1 hPa 0,0 l/m 10,1 km/h (2 Bft) O 101 3,3 C 0,2 C 12,9 km/h (3 Bft)
15.11.2018 11:15 3,4 C 98 % 1028,1 hPa 0,0 l/m 11,5 km/h (2 Bft) O 90 3,1 C -0,8 C 16,1 km/h (3 Bft)
15.11.2018 11:10 3,5 C 99 % 1028,1 hPa 0,0 l/m 11,3 km/h (2 Bft) O 98 3,4 C -0,5 C 17,7 km/h (3 Bft)
15.11.2018 11:05 3,4 C 99 % 1028,1 hPa 0,0 l/m 9,8 km/h (2 Bft) SO 134 3,3 C 0,5 C 14,5 km/h (3 Bft)
15.11.2018 11:00 3,4 C 99 % 1028,2 hPa 0,0 l/m 12,2 km/h (2 Bft) O-SO 117 3,3 C -1,2 C 16,1 km/h (3 Bft)
_ Min-Zeit 09:55 10:35 17:00 - 16:00 - - 09:55 08:40 15:55
Minimum _ 0,8 C 98 % 1027,2 hPa - 2,7 km/h (1 Bft) - - 0,5 C -9,9 C 11,3 km/h (2 Bft)
_ Max-Zeit 16:05 10:40 10:40 17:15 03:00 - - 16:05 16:00 03:05
Maximum _ 3,8 C 99 % 1029,7 hPa 0,2 l/m 23,8 km/h
O (4 Bft)
- - 3,7 C 3,8 C 35,4 km/h
O-NO (5 Bft)
Durchschnitt _ 2,9 C 99 % 1028,0 hPa #0,2 l/m 15,2 km/h (3 Bft) O - 2,7 C -3,4 C 20,9 km/h (4 Bft)